sensor_id;sensor_type;location;lat;lon;timestamp;P1;durP1;ratioP1;P2;durP2;ratioP2
19780;SDS011;10050;55.492;13.506;2023-11-21T00:01:57;11.03;;;7.47;;
19780;SDS011;10050;55.492;13.506;2023-11-21T00:04:23;8.73;;;7.60;;
19780;SDS011;10050;55.492;13.506;2023-11-21T00:06:49;9.23;;;7.80;;
19780;SDS011;10050;55.492;13.506;2023-11-21T00:09:15;8.03;;;6.53;;
19780;SDS011;10050;55.492;13.506;2023-11-21T00:11:42;8.50;;;7.20;;
19780;SDS011;10050;55.492;13.506;2023-11-21T00:14:09;9.00;;;7.40;;
19780;SDS011;10050;55.492;13.506;2023-11-21T00:16:36;9.00;;;7.33;;
19780;SDS011;10050;55.492;13.506;2023-11-21T00:19:01;7.47;;;6.67;;
19780;SDS011;10050;55.492;13.506;2023-11-21T00:21:27;7.90;;;6.73;;
19780;SDS011;10050;55.492;13.506;2023-11-21T00:23:52;9.27;;;6.73;;
19780;SDS011;10050;55.492;13.506;2023-11-21T00:26:18;9.57;;;7.27;;
19780;SDS011;10050;55.492;13.506;2023-11-21T00:28:43;8.53;;;6.97;;
19780;SDS011;10050;55.492;13.506;2023-11-21T00:31:10;8.03;;;6.70;;
19780;SDS011;10050;55.492;13.506;2023-11-21T00:33:36;7.53;;;6.40;;
19780;SDS011;10050;55.492;13.506;2023-11-21T00:36:01;7.77;;;6.53;;
19780;SDS011;10050;55.492;13.506;2023-11-21T00:38:27;9.27;;;7.00;;
19780;SDS011;10050;55.492;13.506;2023-11-21T00:40:53;8.63;;;7.43;;
19780;SDS011;10050;55.492;13.506;2023-11-21T00:43:22;8.33;;;7.00;;
19780;SDS011;10050;55.492;13.506;2023-11-21T00:45:48;7.90;;;7.10;;
19780;SDS011;10050;55.492;13.506;2023-11-21T00:48:14;8.40;;;6.70;;
19780;SDS011;10050;55.492;13.506;2023-11-21T00:50:40;7.57;;;6.73;;
19780;SDS011;10050;55.492;13.506;2023-11-21T00:53:06;7.80;;;6.93;;
19780;SDS011;10050;55.492;13.506;2023-11-21T00:55:32;9.93;;;6.67;;
19780;SDS011;10050;55.492;13.506;2023-11-21T00:57:58;9.03;;;6.73;;
19780;SDS011;10050;55.492;13.506;2023-11-21T01:00:24;7.30;;;6.60;;
19780;SDS011;10050;55.492;13.506;2023-11-21T01:02:50;9.70;;;7.03;;
19780;SDS011;10050;55.492;13.506;2023-11-21T01:05:16;7.57;;;6.70;;
19780;SDS011;10050;55.492;13.506;2023-11-21T01:07:42;9.40;;;7.30;;
19780;SDS011;10050;55.492;13.506;2023-11-21T01:10:07;12.40;;;6.90;;
19780;SDS011;10050;55.492;13.506;2023-11-21T01:12:35;9.33;;;7.50;;
19780;SDS011;10050;55.492;13.506;2023-11-21T01:15:02;8.60;;;7.03;;
19780;SDS011;10050;55.492;13.506;2023-11-21T01:17:36;9.53;;;7.10;;
19780;SDS011;10050;55.492;13.506;2023-11-21T01:20:03;9.90;;;7.27;;
19780;SDS011;10050;55.492;13.506;2023-11-21T01:22:36;8.77;;;6.57;;
19780;SDS011;10050;55.492;13.506;2023-11-21T01:25:02;8.03;;;7.00;;
19780;SDS011;10050;55.492;13.506;2023-11-21T01:27:29;10.53;;;8.30;;
19780;SDS011;10050;55.492;13.506;2023-11-21T01:29:55;8.30;;;7.30;;
19780;SDS011;10050;55.492;13.506;2023-11-21T01:32:20;9.23;;;7.53;;
19780;SDS011;10050;55.492;13.506;2023-11-21T01:34:47;7.20;;;6.40;;
19780;SDS011;10050;55.492;13.506;2023-11-21T01:37:15;9.83;;;6.33;;
19780;SDS011;10050;55.492;13.506;2023-11-21T01:39:42;8.67;;;6.53;;
19780;SDS011;10050;55.492;13.506;2023-11-21T01:42:09;7.33;;;6.60;;
19780;SDS011;10050;55.492;13.506;2023-11-21T01:44:34;9.77;;;6.80;;
19780;SDS011;10050;55.492;13.506;2023-11-21T01:47:00;8.90;;;6.53;;
19780;SDS011;10050;55.492;13.506;2023-11-21T01:49:30;8.90;;;6.50;;
19780;SDS011;10050;55.492;13.506;2023-11-21T01:51:59;10.00;;;6.40;;
19780;SDS011;10050;55.492;13.506;2023-11-21T01:54:25;10.00;;;6.20;;
19780;SDS011;10050;55.492;13.506;2023-11-21T01:56:51;8.67;;;6.40;;
19780;SDS011;10050;55.492;13.506;2023-11-21T01:59:21;8.57;;;6.87;;
19780;SDS011;10050;55.492;13.506;2023-11-21T02:01:50;8.47;;;5.90;;
19780;SDS011;10050;55.492;13.506;2023-11-21T02:04:15;7.90;;;6.77;;
19780;SDS011;10050;55.492;13.506;2023-11-21T02:06:41;9.37;;;5.73;;
19780;SDS011;10050;55.492;13.506;2023-11-21T02:09:07;7.97;;;5.93;;
19780;SDS011;10050;55.492;13.506;2023-11-21T02:11:34;7.97;;;5.93;;
19780;SDS011;10050;55.492;13.506;2023-11-21T02:13:59;7.90;;;6.00;;
19780;SDS011;10050;55.492;13.506;2023-11-21T02:16:25;7.50;;;5.00;;
19780;SDS011;10050;55.492;13.506;2023-11-21T02:18:52;8.70;;;5.73;;
19780;SDS011;10050;55.492;13.506;2023-11-21T02:21:18;6.73;;;5.80;;
19780;SDS011;10050;55.492;13.506;2023-11-21T02:23:44;6.03;;;5.47;;
19780;SDS011;10050;55.492;13.506;2023-11-21T02:26:11;6.20;;;5.60;;
19780;SDS011;10050;55.492;13.506;2023-11-21T02:28:37;5.50;;;4.90;;
19780;SDS011;10050;55.492;13.506;2023-11-21T02:31:04;6.57;;;5.00;;
19780;SDS011;10050;55.492;13.506;2023-11-21T02:33:30;5.90;;;5.10;;
19780;SDS011;10050;55.492;13.506;2023-11-21T02:36:02;6.63;;;5.00;;
19780;SDS011;10050;55.492;13.506;2023-11-21T02:38:28;8.33;;;4.97;;
19780;SDS011;10050;55.492;13.506;2023-11-21T02:40:53;5.30;;;4.80;;
19780;SDS011;10050;55.492;13.506;2023-11-21T02:43:19;5.67;;;4.93;;
19780;SDS011;10050;55.492;13.506;2023-11-21T02:45:45;5.40;;;4.90;;
19780;SDS011;10050;55.492;13.506;2023-11-21T02:48:10;6.57;;;4.77;;
19780;SDS011;10050;55.492;13.506;2023-11-21T02:50:36;6.20;;;5.07;;
19780;SDS011;10050;55.492;13.506;2023-11-21T02:53:02;6.77;;;5.33;;
19780;SDS011;10050;55.492;13.506;2023-11-21T02:55:30;8.00;;;5.43;;
19780;SDS011;10050;55.492;13.506;2023-11-21T02:57:59;6.10;;;5.07;;
19780;SDS011;10050;55.492;13.506;2023-11-21T03:00:25;9.27;;;5.40;;
19780;SDS011;10050;55.492;13.506;2023-11-21T03:02:51;5.93;;;5.30;;
19780;SDS011;10050;55.492;13.506;2023-11-21T03:05:16;6.30;;;5.17;;
19780;SDS011;10050;55.492;13.506;2023-11-21T03:07:42;7.03;;;6.23;;
19780;SDS011;10050;55.492;13.506;2023-11-21T03:10:08;8.37;;;5.97;;
19780;SDS011;10050;55.492;13.506;2023-11-21T03:12:34;5.77;;;4.90;;
19780;SDS011;10050;55.492;13.506;2023-11-21T03:14:59;8.87;;;6.10;;
19780;SDS011;10050;55.492;13.506;2023-11-21T03:17:27;8.77;;;6.20;;
19780;SDS011;10050;55.492;13.506;2023-11-21T03:19:54;8.83;;;6.00;;
19780;SDS011;10050;55.492;13.506;2023-11-21T03:22:19;7.90;;;6.47;;
19780;SDS011;10050;55.492;13.506;2023-11-21T03:24:45;6.63;;;5.67;;
19780;SDS011;10050;55.492;13.506;2023-11-21T03:27:11;8.40;;;6.30;;
19780;SDS011;10050;55.492;13.506;2023-11-21T03:29:37;10.50;;;6.60;;
19780;SDS011;10050;55.492;13.506;2023-11-21T03:32:03;9.20;;;6.53;;
19780;SDS011;10050;55.492;13.506;2023-11-21T03:34:29;8.43;;;6.40;;
19780;SDS011;10050;55.492;13.506;2023-11-21T03:36:55;7.93;;;6.10;;
19780;SDS011;10050;55.492;13.506;2023-11-21T03:39:20;6.50;;;5.37;;
19780;SDS011;10050;55.492;13.506;2023-11-21T03:41:47;8.40;;;6.07;;
19780;SDS011;10050;55.492;13.506;2023-11-21T03:44:13;7.03;;;5.50;;
19780;SDS011;10050;55.492;13.506;2023-11-21T03:46:39;8.00;;;5.83;;
19780;SDS011;10050;55.492;13.506;2023-11-21T03:49:05;6.27;;;5.63;;
19780;SDS011;10050;55.492;13.506;2023-11-21T03:51:32;8.90;;;5.93;;
19780;SDS011;10050;55.492;13.506;2023-11-21T03:53:59;9.60;;;5.90;;
19780;SDS011;10050;55.492;13.506;2023-11-21T03:56:24;7.13;;;5.60;;
19780;SDS011;10050;55.492;13.506;2023-11-21T03:58:50;6.90;;;5.77;;
19780;SDS011;10050;55.492;13.506;2023-11-21T04:01:19;8.13;;;6.30;;
19780;SDS011;10050;55.492;13.506;2023-11-21T04:03:48;7.50;;;5.67;;
19780;SDS011;10050;55.492;13.506;2023-11-21T04:06:15;9.40;;;6.10;;
19780;SDS011;10050;55.492;13.506;2023-11-21T04:08:42;7.60;;;5.37;;
19780;SDS011;10050;55.492;13.506;2023-11-21T04:11:10;6.40;;;5.60;;
19780;SDS011;10050;55.492;13.506;2023-11-21T04:13:37;6.50;;;5.77;;
19780;SDS011;10050;55.492;13.506;2023-11-21T04:16:04;6.90;;;4.93;;
19780;SDS011;10050;55.492;13.506;2023-11-21T04:18:31;9.03;;;5.17;;
19780;SDS011;10050;55.492;13.506;2023-11-21T04:20:56;6.70;;;5.57;;
19780;SDS011;10050;55.492;13.506;2023-11-21T04:23:22;7.80;;;5.97;;
19780;SDS011;10050;55.492;13.506;2023-11-21T04:25:47;7.60;;;5.13;;
19780;SDS011;10050;55.492;13.506;2023-11-21T04:28:13;7.37;;;5.43;;
19780;SDS011;10050;55.492;13.506;2023-11-21T04:30:39;6.87;;;4.63;;
19780;SDS011;10050;55.492;13.506;2023-11-21T04:33:04;7.07;;;4.60;;
19780;SDS011;10050;55.492;13.506;2023-11-21T04:35:30;5.90;;;4.33;;
19780;SDS011;10050;55.492;13.506;2023-11-21T04:37:56;5.87;;;4.47;;
19780;SDS011;10050;55.492;13.506;2023-11-21T04:40:22;5.40;;;4.10;;
19780;SDS011;10050;55.492;13.506;2023-11-21T04:42:48;6.07;;;4.30;;
19780;SDS011;10050;55.492;13.506;2023-11-21T04:45:13;5.30;;;3.67;;
19780;SDS011;10050;55.492;13.506;2023-11-21T04:47:39;6.87;;;3.97;;
19780;SDS011;10050;55.492;13.506;2023-11-21T04:50:05;4.20;;;3.70;;
19780;SDS011;10050;55.492;13.506;2023-11-21T04:52:31;5.33;;;3.57;;
19780;SDS011;10050;55.492;13.506;2023-11-21T04:54:58;4.73;;;3.53;;
19780;SDS011;10050;55.492;13.506;2023-11-21T04:57:25;3.97;;;3.10;;
19780;SDS011;10050;55.492;13.506;2023-11-21T04:59:53;3.53;;;3.03;;
19780;SDS011;10050;55.492;13.506;2023-11-21T05:02:19;2.77;;;2.57;;
19780;SDS011;10050;55.492;13.506;2023-11-21T05:04:46;3.60;;;3.30;;
19780;SDS011;10050;55.492;13.506;2023-11-21T05:07:12;3.30;;;2.83;;
19780;SDS011;10050;55.492;13.506;2023-11-21T05:09:41;5.33;;;2.83;;
19780;SDS011;10050;55.492;13.506;2023-11-21T05:12:08;3.60;;;3.27;;
19780;SDS011;10050;55.492;13.506;2023-11-21T05:14:35;3.90;;;2.70;;
19780;SDS011;10050;55.492;13.506;2023-11-21T05:17:00;3.47;;;3.07;;
19780;SDS011;10050;55.492;13.506;2023-11-21T05:19:26;3.63;;;3.20;;
19780;SDS011;10050;55.492;13.506;2023-11-21T05:21:52;3.67;;;2.90;;
19780;SDS011;10050;55.492;13.506;2023-11-21T05:24:17;3.50;;;3.00;;
19780;SDS011;10050;55.492;13.506;2023-11-21T05:26:43;3.40;;;3.10;;
19780;SDS011;10050;55.492;13.506;2023-11-21T05:29:08;4.67;;;3.40;;
19780;SDS011;10050;55.492;13.506;2023-11-21T05:31:35;4.70;;;3.60;;
19780;SDS011;10050;55.492;13.506;2023-11-21T05:34:01;4.30;;;3.50;;
19780;SDS011;10050;55.492;13.506;2023-11-21T05:36:28;3.90;;;3.50;;
19780;SDS011;10050;55.492;13.506;2023-11-21T05:38:54;4.07;;;3.60;;
19780;SDS011;10050;55.492;13.506;2023-11-21T05:41:19;3.60;;;3.30;;
19780;SDS011;10050;55.492;13.506;2023-11-21T05:43:45;3.87;;;3.20;;
19780;SDS011;10050;55.492;13.506;2023-11-21T05:46:10;5.23;;;3.27;;
19780;SDS011;10050;55.492;13.506;2023-11-21T05:48:36;3.50;;;3.20;;
19780;SDS011;10050;55.492;13.506;2023-11-21T05:51:03;5.57;;;3.13;;
19780;SDS011;10050;55.492;13.506;2023-11-21T05:53:30;3.43;;;3.00;;
19780;SDS011;10050;55.492;13.506;2023-11-21T05:55:55;4.07;;;3.00;;
19780;SDS011;10050;55.492;13.506;2023-11-21T05:58:21;4.37;;;3.67;;
19780;SDS011;10050;55.492;13.506;2023-11-21T06:00:47;7.13;;;3.33;;
19780;SDS011;10050;55.492;13.506;2023-11-21T06:03:13;3.97;;;2.80;;
19780;SDS011;10050;55.492;13.506;2023-11-21T06:05:38;3.73;;;3.10;;
19780;SDS011;10050;55.492;13.506;2023-11-21T06:08:04;6.17;;;3.40;;
19780;SDS011;10050;55.492;13.506;2023-11-21T06:10:31;4.23;;;3.37;;
19780;SDS011;10050;55.492;13.506;2023-11-21T06:12:57;4.20;;;3.60;;
19780;SDS011;10050;55.492;13.506;2023-11-21T06:15:23;3.80;;;3.27;;
19780;SDS011;10050;55.492;13.506;2023-11-21T06:17:49;3.80;;;3.47;;
19780;SDS011;10050;55.492;13.506;2023-11-21T06:20:17;4.97;;;3.40;;
19780;SDS011;10050;55.492;13.506;2023-11-21T06:22:44;5.50;;;2.93;;
19780;SDS011;10050;55.492;13.506;2023-11-21T06:25:11;5.63;;;3.40;;
19780;SDS011;10050;55.492;13.506;2023-11-21T06:27:39;4.97;;;2.97;;
19780;SDS011;10050;55.492;13.506;2023-11-21T06:30:06;6.60;;;3.33;;
19780;SDS011;10050;55.492;13.506;2023-11-21T06:32:34;3.07;;;2.83;;
19780;SDS011;10050;55.492;13.506;2023-11-21T06:35:01;3.20;;;2.30;;
19780;SDS011;10050;55.492;13.506;2023-11-21T06:37:30;4.13;;;3.10;;
19780;SDS011;10050;55.492;13.506;2023-11-21T06:39:57;3.87;;;2.80;;
19780;SDS011;10050;55.492;13.506;2023-11-21T06:42:24;3.17;;;2.77;;
19780;SDS011;10050;55.492;13.506;2023-11-21T06:44:50;3.20;;;2.80;;
19780;SDS011;10050;55.492;13.506;2023-11-21T06:47:21;5.23;;;3.17;;
19780;SDS011;10050;55.492;13.506;2023-11-21T06:49:50;4.20;;;3.53;;
19780;SDS011;10050;55.492;13.506;2023-11-21T06:52:16;3.03;;;2.73;;
19780;SDS011;10050;55.492;13.506;2023-11-21T06:54:42;3.53;;;3.23;;
19780;SDS011;10050;55.492;13.506;2023-11-21T06:57:07;4.33;;;2.47;;
19780;SDS011;10050;55.492;13.506;2023-11-21T06:59:33;5.33;;;3.23;;
19780;SDS011;10050;55.492;13.506;2023-11-21T07:02:02;4.03;;;3.20;;
19780;SDS011;10050;55.492;13.506;2023-11-21T07:04:31;4.90;;;2.90;;
19780;SDS011;10050;55.492;13.506;2023-11-21T07:06:57;3.93;;;3.30;;
19780;SDS011;10050;55.492;13.506;2023-11-21T07:09:23;3.17;;;2.83;;
19780;SDS011;10050;55.492;13.506;2023-11-21T07:11:50;4.43;;;3.20;;
19780;SDS011;10050;55.492;13.506;2023-11-21T07:14:19;3.50;;;2.80;;
19780;SDS011;10050;55.492;13.506;2023-11-21T07:16:45;3.57;;;2.87;;
19780;SDS011;10050;55.492;13.506;2023-11-21T07:19:11;4.73;;;2.70;;
19780;SDS011;10050;55.492;13.506;2023-11-21T07:21:37;5.93;;;2.90;;
19780;SDS011;10050;55.492;13.506;2023-11-21T07:24:04;3.40;;;3.03;;
19780;SDS011;10050;55.492;13.506;2023-11-21T07:26:34;5.17;;;2.87;;
19780;SDS011;10050;55.492;13.506;2023-11-21T07:29:00;3.30;;;2.90;;
19780;SDS011;10050;55.492;13.506;2023-11-21T07:31:27;7.77;;;4.13;;
19780;SDS011;10050;55.492;13.506;2023-11-21T07:33:54;3.83;;;3.30;;
19780;SDS011;10050;55.492;13.506;2023-11-21T07:36:22;6.10;;;3.73;;
19780;SDS011;10050;55.492;13.506;2023-11-21T07:38:48;4.27;;;3.40;;
19780;SDS011;10050;55.492;13.506;2023-11-21T07:41:14;4.30;;;3.77;;
19780;SDS011;10050;55.492;13.506;2023-11-21T07:43:43;7.37;;;3.87;;
19780;SDS011;10050;55.492;13.506;2023-11-21T07:46:09;4.23;;;3.83;;
19780;SDS011;10050;55.492;13.506;2023-11-21T07:48:37;3.97;;;3.57;;
19780;SDS011;10050;55.492;13.506;2023-11-21T07:51:04;5.50;;;3.90;;
19780;SDS011;10050;55.492;13.506;2023-11-21T07:53:30;5.77;;;3.73;;
19780;SDS011;10050;55.492;13.506;2023-11-21T07:55:58;5.87;;;3.83;;
19780;SDS011;10050;55.492;13.506;2023-11-21T07:58:28;4.47;;;4.03;;
19780;SDS011;10050;55.492;13.506;2023-11-21T08:00:53;6.93;;;3.50;;
19780;SDS011;10050;55.492;13.506;2023-11-21T08:03:19;5.63;;;3.77;;
19780;SDS011;10050;55.492;13.506;2023-11-21T08:05:46;3.60;;;3.30;;
19780;SDS011;10050;55.492;13.506;2023-11-21T08:08:11;6.13;;;3.40;;
19780;SDS011;10050;55.492;13.506;2023-11-21T08:10:37;5.50;;;3.80;;
19780;SDS011;10050;55.492;13.506;2023-11-21T08:13:03;5.03;;;4.00;;
19780;SDS011;10050;55.492;13.506;2023-11-21T08:15:29;7.33;;;3.93;;
19780;SDS011;10050;55.492;13.506;2023-11-21T08:17:57;3.83;;;3.43;;
19780;SDS011;10050;55.492;13.506;2023-11-21T08:20:24;6.30;;;3.67;;
19780;SDS011;10050;55.492;13.506;2023-11-21T08:22:50;3.93;;;3.60;;
19780;SDS011;10050;55.492;13.506;2023-11-21T08:25:17;7.00;;;4.13;;
19780;SDS011;10050;55.492;13.506;2023-11-21T08:27:44;9.47;;;4.10;;
19780;SDS011;10050;55.492;13.506;2023-11-21T08:30:11;5.03;;;3.80;;
19780;SDS011;10050;55.492;13.506;2023-11-21T08:32:37;4.80;;;3.93;;
19780;SDS011;10050;55.492;13.506;2023-11-21T08:35:03;5.43;;;3.73;;
19780;SDS011;10050;55.492;13.506;2023-11-21T08:37:30;4.40;;;3.40;;
19780;SDS011;10050;55.492;13.506;2023-11-21T08:39:58;4.80;;;3.63;;
19780;SDS011;10050;55.492;13.506;2023-11-21T08:42:27;4.80;;;4.30;;
19780;SDS011;10050;55.492;13.506;2023-11-21T08:44:54;5.90;;;4.07;;
19780;SDS011;10050;55.492;13.506;2023-11-21T08:47:23;6.60;;;4.20;;
19780;SDS011;10050;55.492;13.506;2023-11-21T08:49:49;6.43;;;4.23;;
19780;SDS011;10050;55.492;13.506;2023-11-21T08:52:18;4.43;;;3.60;;
19780;SDS011;10050;55.492;13.506;2023-11-21T08:54:50;6.30;;;3.80;;
19780;SDS011;10050;55.492;13.506;2023-11-21T08:57:21;4.83;;;3.97;;
19780;SDS011;10050;55.492;13.506;2023-11-21T08:59:48;6.50;;;4.33;;
19780;SDS011;10050;55.492;13.506;2023-11-21T09:02:13;4.87;;;3.77;;
19780;SDS011;10050;55.492;13.506;2023-11-21T09:04:39;4.77;;;3.00;;
19780;SDS011;10050;55.492;13.506;2023-11-21T09:07:04;3.53;;;2.90;;
19780;SDS011;10050;55.492;13.506;2023-11-21T09:09:30;3.63;;;3.27;;
19780;SDS011;10050;55.492;13.506;2023-11-21T09:11:56;4.17;;;2.93;;
19780;SDS011;10050;55.492;13.506;2023-11-21T09:14:22;3.90;;;3.27;;
19780;SDS011;10050;55.492;13.506;2023-11-21T09:16:47;3.97;;;3.37;;
19780;SDS011;10050;55.492;13.506;2023-11-21T09:19:15;3.83;;;3.30;;
19780;SDS011;10050;55.492;13.506;2023-11-21T09:21:41;3.40;;;3.10;;
19780;SDS011;10050;55.492;13.506;2023-11-21T09:24:06;3.67;;;3.37;;
19780;SDS011;10050;55.492;13.506;2023-11-21T09:26:34;3.10;;;2.80;;
19780;SDS011;10050;55.492;13.506;2023-11-21T09:28:59;4.10;;;3.80;;
19780;SDS011;10050;55.492;13.506;2023-11-21T09:31:27;3.33;;;2.73;;
19780;SDS011;10050;55.492;13.506;2023-11-21T09:33:52;3.37;;;2.90;;
19780;SDS011;10050;55.492;13.506;2023-11-21T09:36:18;3.27;;;3.00;;
19780;SDS011;10050;55.492;13.506;2023-11-21T09:38:44;4.37;;;2.87;;
19780;SDS011;10050;55.492;13.506;2023-11-21T09:41:11;3.60;;;2.70;;
19780;SDS011;10050;55.492;13.506;2023-11-21T09:43:49;4.30;;;3.10;;
19780;SDS011;10050;55.492;13.506;2023-11-21T09:46:20;4.83;;;3.20;;
19780;SDS011;10050;55.492;13.506;2023-11-21T09:48:49;4.77;;;3.03;;
19780;SDS011;10050;55.492;13.506;2023-11-21T09:51:18;3.00;;;2.73;;
19780;SDS011;10050;55.492;13.506;2023-11-21T09:53:46;3.67;;;3.30;;
19780;SDS011;10050;55.492;13.506;2023-11-21T09:56:14;5.40;;;3.10;;
19780;SDS011;10050;55.492;13.506;2023-11-21T09:58:44;3.33;;;3.03;;
19780;SDS011;10050;55.492;13.506;2023-11-21T10:01:10;3.73;;;3.30;;
19780;SDS011;10050;55.492;13.506;2023-11-21T10:03:39;5.03;;;3.43;;
19780;SDS011;10050;55.492;13.506;2023-11-21T10:06:07;4.87;;;3.83;;
19780;SDS011;10050;55.492;13.506;2023-11-21T10:08:33;3.40;;;3.10;;
19780;SDS011;10050;55.492;13.506;2023-11-21T10:11:01;3.50;;;3.20;;
19780;SDS011;10050;55.492;13.506;2023-11-21T10:13:27;4.67;;;3.83;;
19780;SDS011;10050;55.492;13.506;2023-11-21T10:15:55;4.53;;;3.47;;
19780;SDS011;10050;55.492;13.506;2023-11-21T10:18:22;5.70;;;4.07;;
19780;SDS011;10050;55.492;13.506;2023-11-21T10:20:50;7.13;;;3.53;;
19780;SDS011;10050;55.492;13.506;2023-11-21T10:23:19;4.20;;;3.57;;
19780;SDS011;10050;55.492;13.506;2023-11-21T10:25:46;4.13;;;3.50;;
19780;SDS011;10050;55.492;13.506;2023-11-21T10:28:12;5.53;;;3.40;;
19780;SDS011;10050;55.492;13.506;2023-11-21T10:30:38;4.43;;;3.63;;
19780;SDS011;10050;55.492;13.506;2023-11-21T10:33:05;4.30;;;3.40;;
19780;SDS011;10050;55.492;13.506;2023-11-21T10:35:44;3.80;;;3.50;;
19780;SDS011;10050;55.492;13.506;2023-11-21T10:38:16;3.27;;;2.93;;
19780;SDS011;10050;55.492;13.506;2023-11-21T10:40:42;4.83;;;2.50;;
19780;SDS011;10050;55.492;13.506;2023-11-21T10:43:09;2.60;;;2.40;;
19780;SDS011;10050;55.492;13.506;2023-11-21T10:45:36;2.90;;;2.70;;
19780;SDS011;10050;55.492;13.506;2023-11-21T10:48:06;3.30;;;3.00;;
19780;SDS011;10050;55.492;13.506;2023-11-21T10:50:42;3.13;;;2.80;;
19780;SDS011;10050;55.492;13.506;2023-11-21T10:53:09;4.33;;;2.77;;
19780;SDS011;10050;55.492;13.506;2023-11-21T10:55:34;2.80;;;2.47;;
19780;SDS011;10050;55.492;13.506;2023-11-21T10:58:01;3.23;;;2.93;;
19780;SDS011;10050;55.492;13.506;2023-11-21T11:00:29;5.33;;;2.70;;
19780;SDS011;10050;55.492;13.506;2023-11-21T11:02:56;4.73;;;2.80;;
19780;SDS011;10050;55.492;13.506;2023-11-21T11:05:23;4.43;;;2.50;;
19780;SDS011;10050;55.492;13.506;2023-11-21T11:07:51;4.07;;;2.70;;
19780;SDS011;10050;55.492;13.506;2023-11-21T11:10:24;3.23;;;2.50;;
19780;SDS011;10050;55.492;13.506;2023-11-21T11:12:52;6.60;;;3.00;;
19780;SDS011;10050;55.492;13.506;2023-11-21T11:15:22;2.73;;;2.50;;
19780;SDS011;10050;55.492;13.506;2023-11-21T11:17:48;3.67;;;2.93;;
19780;SDS011;10050;55.492;13.506;2023-11-21T11:20:15;3.20;;;2.87;;
19780;SDS011;10050;55.492;13.506;2023-11-21T11:26:11;3.00;;;2.70;;
19780;SDS011;10050;55.492;13.506;2023-11-21T11:33:57;3.13;;;2.53;;
19780;SDS011;10050;55.492;13.506;2023-11-21T11:37:15;2.80;;;2.50;;
19780;SDS011;10050;55.492;13.506;2023-11-21T11:39:34;2.80;;;2.50;;
19780;SDS011;10050;55.492;13.506;2023-11-21T11:42:02;2.60;;;2.40;;
19780;SDS011;10050;55.492;13.506;2023-11-21T11:47:20;2.67;;;2.40;;
19780;SDS011;10050;55.492;13.506;2023-11-21T11:52:42;7.37;;;3.17;;
19780;SDS011;10050;55.492;13.506;2023-11-21T11:55:19;3.23;;;2.60;;
19780;SDS011;10050;55.492;13.506;2023-11-21T11:57:47;3.07;;;2.67;;
19780;SDS011;10050;55.492;13.506;2023-11-21T12:02:51;3.17;;;2.90;;
19780;SDS011;10050;55.492;13.506;2023-11-21T12:05:19;3.47;;;2.63;;
19780;SDS011;10050;55.492;13.506;2023-11-21T12:10:14;4.27;;;3.10;;
19780;SDS011;10050;55.492;13.506;2023-11-21T12:12:46;4.17;;;3.30;;
19780;SDS011;10050;55.492;13.506;2023-11-21T12:15:18;3.63;;;3.07;;
19780;SDS011;10050;55.492;13.506;2023-11-21T12:17:45;3.43;;;3.13;;
19780;SDS011;10050;55.492;13.506;2023-11-21T12:20:14;3.27;;;3.00;;
19780;SDS011;10050;55.492;13.506;2023-11-21T12:27:45;3.37;;;3.07;;
19780;SDS011;10050;55.492;13.506;2023-11-21T12:30:14;5.23;;;3.30;;
19780;SDS011;10050;55.492;13.506;2023-11-21T12:32:41;3.73;;;3.10;;
19780;SDS011;10050;55.492;13.506;2023-11-21T12:35:13;4.00;;;3.60;;
19780;SDS011;10050;55.492;13.506;2023-11-21T12:37:39;4.23;;;3.00;;
19780;SDS011;10050;55.492;13.506;2023-11-21T12:40:08;4.50;;;3.23;;
19780;SDS011;10050;55.492;13.506;2023-11-21T12:42:37;3.33;;;3.00;;
19780;SDS011;10050;55.492;13.506;2023-11-21T12:45:25;5.07;;;3.00;;
19780;SDS011;10050;55.492;13.506;2023-11-21T12:47:55;4.33;;;3.37;;
19780;SDS011;10050;55.492;13.506;2023-11-21T12:50:25;5.70;;;3.47;;
19780;SDS011;10050;55.492;13.506;2023-11-21T12:53:08;3.83;;;3.43;;
19780;SDS011;10050;55.492;13.506;2023-11-21T12:55:37;4.63;;;3.17;;
19780;SDS011;10050;55.492;13.506;2023-11-21T12:58:03;4.13;;;2.87;;
19780;SDS011;10050;55.492;13.506;2023-11-21T13:03:02;4.60;;;3.53;;
19780;SDS011;10050;55.492;13.506;2023-11-21T13:05:33;3.87;;;3.30;;
19780;SDS011;10050;55.492;13.506;2023-11-21T13:08:01;3.17;;;2.80;;
19780;SDS011;10050;55.492;13.506;2023-11-21T13:10:29;5.67;;;2.70;;
19780;SDS011;10050;55.492;13.506;2023-11-21T13:12:57;3.20;;;2.77;;
19780;SDS011;10050;55.492;13.506;2023-11-21T13:15:24;3.37;;;3.03;;
19780;SDS011;10050;55.492;13.506;2023-11-21T13:17:50;3.50;;;3.20;;
19780;SDS011;10050;55.492;13.506;2023-11-21T13:20:16;5.97;;;3.43;;
19780;SDS011;10050;55.492;13.506;2023-11-21T13:23:06;6.27;;;3.60;;
19780;SDS011;10050;55.492;13.506;2023-11-21T13:25:36;5.17;;;3.40;;
19780;SDS011;10050;55.492;13.506;2023-11-21T13:28:04;5.13;;;3.37;;
19780;SDS011;10050;55.492;13.506;2023-11-21T13:30:30;3.53;;;2.90;;
19780;SDS011;10050;55.492;13.506;2023-11-21T13:33:02;5.63;;;3.37;;
19780;SDS011;10050;55.492;13.506;2023-11-21T13:35:31;3.50;;;3.20;;
19780;SDS011;10050;55.492;13.506;2023-11-21T13:38:13;5.40;;;2.90;;
19780;SDS011;10050;55.492;13.506;2023-11-21T13:40:41;5.33;;;3.17;;
19780;SDS011;10050;55.492;13.506;2023-11-21T13:43:12;5.63;;;3.27;;
19780;SDS011;10050;55.492;13.506;2023-11-21T13:45:39;4.50;;;2.73;;
19780;SDS011;10050;55.492;13.506;2023-11-21T13:48:06;3.97;;;2.70;;
19780;SDS011;10050;55.492;13.506;2023-11-21T13:50:38;5.50;;;2.93;;
19780;SDS011;10050;55.492;13.506;2023-11-21T13:53:11;3.40;;;3.10;;
19780;SDS011;10050;55.492;13.506;2023-11-21T13:55:47;4.93;;;2.80;;
19780;SDS011;10050;55.492;13.506;2023-11-21T13:58:19;4.13;;;3.00;;
19780;SDS011;10050;55.492;13.506;2023-11-21T14:00:57;4.33;;;2.97;;
19780;SDS011;10050;55.492;13.506;2023-11-21T14:03:23;3.43;;;3.13;;
19780;SDS011;10050;55.492;13.506;2023-11-21T14:05:57;3.77;;;3.33;;
19780;SDS011;10050;55.492;13.506;2023-11-21T14:08:25;3.83;;;3.30;;
19780;SDS011;10050;55.492;13.506;2023-11-21T14:10:56;3.63;;;3.20;;
19780;SDS011;10050;55.492;13.506;2023-11-21T14:13:25;4.57;;;2.97;;
19780;SDS011;10050;55.492;13.506;2023-11-21T14:15:52;5.30;;;2.80;;
19780;SDS011;10050;55.492;13.506;2023-11-21T14:18:23;6.37;;;3.03;;
19780;SDS011;10050;55.492;13.506;2023-11-21T14:20:59;2.87;;;2.67;;
19780;SDS011;10050;55.492;13.506;2023-11-21T14:23:24;4.23;;;2.93;;
19780;SDS011;10050;55.492;13.506;2023-11-21T14:25:50;4.10;;;3.13;;
19780;SDS011;10050;55.492;13.506;2023-11-21T14:28:17;3.27;;;2.97;;
19780;SDS011;10050;55.492;13.506;2023-11-21T14:30:44;3.53;;;3.13;;
19780;SDS011;10050;55.492;13.506;2023-11-21T14:33:11;4.60;;;3.07;;
19780;SDS011;10050;55.492;13.506;2023-11-21T14:35:37;4.03;;;3.40;;
19780;SDS011;10050;55.492;13.506;2023-11-21T14:38:03;3.40;;;2.90;;
19780;SDS011;10050;55.492;13.506;2023-11-21T14:40:32;4.07;;;3.50;;
19780;SDS011;10050;55.492;13.506;2023-11-21T14:43:00;3.73;;;3.10;;
19780;SDS011;10050;55.492;13.506;2023-11-21T14:45:32;3.90;;;3.00;;
19780;SDS011;10050;55.492;13.506;2023-11-21T14:47:58;3.40;;;3.10;;
19780;SDS011;10050;55.492;13.506;2023-11-21T14:50:41;5.13;;;3.20;;
19780;SDS011;10050;55.492;13.506;2023-11-21T14:53:10;3.63;;;3.20;;
19780;SDS011;10050;55.492;13.506;2023-11-21T14:55:38;3.40;;;3.10;;
19780;SDS011;10050;55.492;13.506;2023-11-21T14:58:16;4.10;;;3.07;;
19780;SDS011;10050;55.492;13.506;2023-11-21T15:00:53;3.57;;;3.00;;
19780;SDS011;10050;55.492;13.506;2023-11-21T15:03:23;4.27;;;3.50;;